sensor_id;sensor_type;location;lat;lon;timestamp;pressure;altitude;pressure_sealevel;temperature;humidity
69622;BME280;56841;55.964;37.674;2023-05-15T20:44:30;100087.63;;;11.90;72.22
69622;BME280;56841;55.964;37.674;2023-05-15T20:46:58;100079.69;;;11.98;71.39
69622;BME280;56841;55.964;37.674;2023-05-15T20:49:24;100076.88;;;11.99;71.33
69622;BME280;56841;55.964;37.674;2023-05-15T20:51:49;100075.41;;;12.05;71.48
69622;BME280;56841;55.964;37.674;2023-05-15T20:54:16;100067.78;;;12.10;70.92
69622;BME280;56841;55.964;37.674;2023-05-15T20:56:41;100084.31;;;12.12;70.58
69622;BME280;56841;55.964;37.674;2023-05-15T20:59:07;100077.03;;;12.06;71.81
69622;BME280;56841;55.964;37.674;2023-05-15T21:01:33;100088.94;;;12.10;71.94
69622;BME280;56841;55.964;37.674;2023-05-15T21:03:58;100086.97;;;12.12;71.80
69622;BME280;56841;55.964;37.674;2023-05-15T21:06:27;100090.63;;;12.11;72.67
69622;BME280;56841;55.964;37.674;2023-05-15T21:08:53;100094.59;;;12.15;72.31
69622;BME280;56841;55.964;37.674;2023-05-15T21:11:19;100095.09;;;12.11;72.39
69622;BME280;56841;55.964;37.674;2023-05-15T21:13:46;100101.22;;;12.11;72.27
69622;BME280;56841;55.964;37.674;2023-05-15T21:16:11;100099.03;;;12.06;72.91
69622;BME280;56841;55.964;37.674;2023-05-15T21:18:37;100107.47;;;12.02;74.10
69622;BME280;56841;55.964;37.674;2023-05-15T21:21:03;100104.16;;;11.92;76.78
69622;BME280;56841;55.964;37.674;2023-05-15T21:23:33;100110.78;;;11.88;78.16
69622;BME280;56841;55.964;37.674;2023-05-15T21:26:01;100111.59;;;11.88;79.13
69622;BME280;56841;55.964;37.674;2023-05-15T21:28:28;100109.13;;;11.95;77.92
69622;BME280;56841;55.964;37.674;2023-05-15T21:30:54;100112.47;;;11.97;76.66
69622;BME280;56841;55.964;37.674;2023-05-15T21:33:19;100113.25;;;11.89;77.72
69622;BME280;56841;55.964;37.674;2023-05-15T21:35:45;100117.06;;;11.87;77.19
69622;BME280;56841;55.964;37.674;2023-05-15T21:38:13;100112.06;;;11.83;77.16
69622;BME280;56841;55.964;37.674;2023-05-15T21:40:39;100114.53;;;11.77;77.92
69622;BME280;56841;55.964;37.674;2023-05-15T21:43:05;100115.00;;;11.72;79.57
69622;BME280;56841;55.964;37.674;2023-05-15T21:45:31;100117.34;;;11.67;79.00
69622;BME280;56841;55.964;37.674;2023-05-15T21:47:57;100125.25;;;11.59;80.94
69622;BME280;56841;55.964;37.674;2023-05-15T21:50:26;100123.44;;;11.59;81.24
69622;BME280;56841;55.964;37.674;2023-05-15T21:52:52;100129.06;;;11.56;80.06
69622;BME280;56841;55.964;37.674;2023-05-15T21:55:18;100132.84;;;11.54;79.19
69622;BME280;56841;55.964;37.674;2023-05-15T21:57:44;100135.81;;;11.51;77.78
69622;BME280;56841;55.964;37.674;2023-05-15T22:00:10;100135.31;;;11.55;76.99
69622;BME280;56841;55.964;37.674;2023-05-15T22:02:36;100133.66;;;11.54;76.57
69622;BME280;56841;55.964;37.674;2023-05-15T22:05:02;100131.53;;;11.58;75.47
69622;BME280;56841;55.964;37.674;2023-05-15T22:07:28;100132.19;;;11.60;73.06
69622;BME280;56841;55.964;37.674;2023-05-15T22:09:54;100136.16;;;11.64;71.71
69622;BME280;56841;55.964;37.674;2023-05-15T22:12:20;100135.16;;;11.65;73.97
69622;BME280;56841;55.964;37.674;2023-05-15T22:14:46;100131.72;;;11.65;73.50
69622;BME280;56841;55.964;37.674;2023-05-15T22:17:12;100130.88;;;11.64;73.54
69622;BME280;56841;55.964;37.674;2023-05-15T22:19:37;100123.94;;;11.63;73.79
69622;BME280;56841;55.964;37.674;2023-05-15T22:22:07;100134.84;;;11.60;73.47
69622;BME280;56841;55.964;37.674;2023-05-15T22:24:33;100136.47;;;11.53;72.86
69622;BME280;56841;55.964;37.674;2023-05-15T22:26:59;100130.00;;;11.47;72.61
69622;BME280;56841;55.964;37.674;2023-05-15T22:29:25;100134.16;;;11.50;72.07
69622;BME280;56841;55.964;37.674;2023-05-15T22:31:51;100128.81;;;11.42;71.85
69622;BME280;56841;55.964;37.674;2023-05-15T22:34:17;100135.81;;;11.08;72.99
69622;BME280;56841;55.964;37.674;2023-05-15T22:36:43;100134.34;;;11.14;73.17
69622;BME280;56841;55.964;37.674;2023-05-15T22:39:10;100117.81;;;11.12;73.27
69622;BME280;56841;55.964;37.674;2023-05-15T22:41:36;100128.34;;;11.04;74.05
69622;BME280;56841;55.964;37.674;2023-05-15T22:44:02;100129.72;;;11.08;78.22
69622;BME280;56841;55.964;37.674;2023-05-15T22:46:29;100132.34;;;11.08;78.81
69622;BME280;56841;55.964;37.674;2023-05-15T22:48:55;100133.38;;;11.15;78.09
69622;BME280;56841;55.964;37.674;2023-05-15T22:51:23;100129.25;;;11.21;76.08
69622;BME280;56841;55.964;37.674;2023-05-15T22:53:49;100128.28;;;11.22;75.65
69622;BME280;56841;55.964;37.674;2023-05-15T22:56:14;100127.06;;;11.08;77.70
69622;BME280;56841;55.964;37.674;2023-05-15T22:58:40;100132.28;;;11.00;79.76
69622;BME280;56841;55.964;37.674;2023-05-15T23:01:06;100134.59;;;10.95;83.77
69622;BME280;56841;55.964;37.674;2023-05-15T23:03:32;100150.03;;;10.81;84.02
69622;BME280;56841;55.964;37.674;2023-05-15T23:05:57;100150.41;;;10.60;85.48
69622;BME280;56841;55.964;37.674;2023-05-15T23:08:23;100143.63;;;10.58;85.52
69622;BME280;56841;55.964;37.674;2023-05-15T23:10:49;100148.06;;;10.57;85.06
69622;BME280;56841;55.964;37.674;2023-05-15T23:13:15;100138.13;;;10.51;85.01
69622;BME280;56841;55.964;37.674;2023-05-15T23:15:40;100136.38;;;10.60;83.75
69622;BME280;56841;55.964;37.674;2023-05-15T23:18:08;100140.88;;;10.67;82.57
69622;BME280;56841;55.964;37.674;2023-05-15T23:20:34;100129.84;;;10.72;82.11
69622;BME280;56841;55.964;37.674;2023-05-15T23:23:00;100136.94;;;10.72;81.71
69622;BME280;56841;55.964;37.674;2023-05-15T23:25:26;100136.75;;;10.73;81.51
69622;BME280;56841;55.964;37.674;2023-05-15T23:27:51;100136.91;;;10.63;81.78
69622;BME280;56841;55.964;37.674;2023-05-15T23:30:17;100142.47;;;10.60;83.05
69622;BME280;56841;55.964;37.674;2023-05-15T23:32:43;100136.78;;;10.47;82.25
69622;BME280;56841;55.964;37.674;2023-05-15T23:35:09;100137.28;;;10.51;80.93
69622;BME280;56841;55.964;37.674;2023-05-15T23:37:34;100149.16;;;10.47;81.08
69622;BME280;56841;55.964;37.674;2023-05-15T23:40:01;100131.50;;;10.47;80.93
69622;BME280;56841;55.964;37.674;2023-05-15T23:42:29;100142.06;;;10.47;81.09
69622;BME280;56841;55.964;37.674;2023-05-15T23:44:55;100141.88;;;10.49;80.83
69622;BME280;56841;55.964;37.674;2023-05-15T23:47:21;100142.81;;;10.39;80.52
69622;BME280;56841;55.964;37.674;2023-05-15T23:49:47;100141.63;;;10.34;81.21
69622;BME280;56841;55.964;37.674;2023-05-15T23:52:13;100146.84;;;10.26;81.51
69622;BME280;56841;55.964;37.674;2023-05-15T23:54:38;100147.94;;;10.23;82.56
69622;BME280;56841;55.964;37.674;2023-05-15T23:57:04;100137.53;;;10.21;83.53
69622;BME280;56841;55.964;37.674;2023-05-15T23:59:30;100147.56;;;10.18;83.86
